createdAt,value
2023-02-02T00:00:12.835Z,1.73
2023-02-02T00:02:39.346Z,1.73
2023-02-02T00:05:05.919Z,1.75
2023-02-02T00:07:32.352Z,1.75
2023-02-02T00:09:58.865Z,1.75
2023-02-02T00:12:25.353Z,1.71
2023-02-02T00:14:51.759Z,1.70
2023-02-02T00:17:18.191Z,1.73
2023-02-02T00:19:46.794Z,1.75
2023-02-02T00:22:13.299Z,1.73
2023-02-02T00:24:39.844Z,1.63
2023-02-02T00:27:06.273Z,1.64
2023-02-02T00:29:32.824Z,1.69
2023-02-02T00:31:59.353Z,1.60
2023-02-02T00:34:26.004Z,1.53
2023-02-02T00:36:52.515Z,1.55
2023-02-02T00:39:23.160Z,1.58
2023-02-02T00:41:49.590Z,1.62
2023-02-02T00:44:34.675Z,1.67
2023-02-02T00:47:01.179Z,1.72
2023-02-02T00:49:27.618Z,1.76
2023-02-02T00:51:54.155Z,1.82
2023-02-02T00:54:20.606Z,1.85
2023-02-02T00:56:47.062Z,1.85
2023-02-02T00:59:13.501Z,1.85
2023-02-02T01:01:39.992Z,1.79
2023-02-02T01:04:06.921Z,1.68
2023-02-02T01:06:33.421Z,1.71
2023-02-02T01:08:59.890Z,1.77
2023-02-02T01:11:26.344Z,1.80
2023-02-02T01:13:52.844Z,1.78
2023-02-02T01:16:19.339Z,1.81
2023-02-02T01:18:45.799Z,1.87
2023-02-02T01:21:12.663Z,1.90
2023-02-02T01:23:39.331Z,1.88
2023-02-02T01:26:07.960Z,1.86
2023-02-02T01:28:35.000Z,1.89
2023-02-02T01:31:06.424Z,1.89
2023-02-02T01:33:32.900Z,1.89
2023-02-02T01:36:02.773Z,1.87
2023-02-02T01:38:29.214Z,1.90
2023-02-02T01:40:56.356Z,1.91
2023-02-02T01:43:25.633Z,1.91
2023-02-02T01:45:52.690Z,1.76
2023-02-02T01:48:21.686Z,1.77
2023-02-02T01:50:49.962Z,1.73
2023-02-02T01:53:19.805Z,1.74
2023-02-02T01:55:48.136Z,1.75
2023-02-02T01:58:17.945Z,1.69
2023-02-02T02:00:46.943Z,1.68
2023-02-02T02:03:18.856Z,1.73
2023-02-02T02:05:48.509Z,1.66
2023-02-02T02:08:22.412Z,1.68
2023-02-02T02:10:49.129Z,1.73
2023-02-02T02:13:16.198Z,1.77
2023-02-02T02:16:16.622Z,1.77
2023-02-02T02:18:51.907Z,1.79
2023-02-02T02:21:56.910Z,1.77
2023-02-02T02:25:00.825Z,1.75
2023-02-02T02:27:36.478Z,1.77
2023-02-02T02:30:07.335Z,1.73
2023-02-02T02:32:40.243Z,1.79
2023-02-02T02:35:12.841Z,1.78
2023-02-02T02:37:49.659Z,1.80
2023-02-02T02:40:16.383Z,1.79
2023-02-02T02:42:46.027Z,1.79
2023-02-02T02:45:13.208Z,1.76
2023-02-02T02:47:41.252Z,1.73
2023-02-02T02:50:07.965Z,1.75
2023-02-02T02:52:35.165Z,1.70
2023-02-02T02:55:02.252Z,1.60
2023-02-02T02:57:34.907Z,1.53
2023-02-02T03:00:21.589Z,1.57
2023-02-02T03:02:52.885Z,1.67
2023-02-02T03:05:19.347Z,1.69
2023-02-02T03:07:50.137Z,1.65
2023-02-02T03:10:19.539Z,1.66
2023-02-02T03:12:50.507Z,1.73
2023-02-02T03:15:17.489Z,1.72
2023-02-02T03:17:44.833Z,1.73
2023-02-02T03:20:11.734Z,1.74
2023-02-02T03:22:38.197Z,1.76
2023-02-02T03:25:05.107Z,1.76
2023-02-02T03:27:32.197Z,1.79
2023-02-02T03:29:58.887Z,1.83
2023-02-02T03:32:25.510Z,1.82
2023-02-02T03:34:51.949Z,1.85
2023-02-02T03:37:18.428Z,1.85
2023-02-02T03:39:44.859Z,1.83
2023-02-02T03:42:11.286Z,1.81
2023-02-02T03:44:37.745Z,1.79
2023-02-02T03:47:04.173Z,1.83
2023-02-02T03:49:30.601Z,1.81
2023-02-02T03:51:57.073Z,1.85
2023-02-02T03:54:23.552Z,1.84
2023-02-02T03:56:50.020Z,1.87
2023-02-02T03:59:16.476Z,1.90
2023-02-02T04:01:42.937Z,1.88
2023-02-02T04:04:09.367Z,1.87
2023-02-02T04:06:35.934Z,1.91
2023-02-02T04:09:02.356Z,1.88
2023-02-02T04:11:28.833Z,1.88
2023-02-02T04:13:55.299Z,1.83
2023-02-02T04:16:21.780Z,1.89
2023-02-02T04:18:48.248Z,1.91
2023-02-02T04:21:14.734Z,1.89
2023-02-02T04:23:41.207Z,1.86
2023-02-02T04:26:07.672Z,1.89
2023-02-02T04:28:34.107Z,1.88
2023-02-02T04:31:00.590Z,1.84
2023-02-02T04:33:28.060Z,1.73
2023-02-02T04:35:54.593Z,1.72
2023-02-02T04:38:21.075Z,1.75
2023-02-02T04:40:48.020Z,1.78
2023-02-02T04:43:14.495Z,1.79
2023-02-02T04:45:42.335Z,1.82
2023-02-02T04:48:09.239Z,1.82
2023-02-02T04:50:35.687Z,1.83
2023-02-02T04:53:02.925Z,1.87
2023-02-02T04:55:29.349Z,1.78
2023-02-02T04:57:55.796Z,1.80
2023-02-02T05:00:22.461Z,1.82
2023-02-02T05:02:48.991Z,1.88
2023-02-02T05:05:15.556Z,1.89
2023-02-02T05:07:42.239Z,1.81
2023-02-02T05:10:09.706Z,1.76
2023-02-02T05:12:36.128Z,1.80
2023-02-02T05:15:03.615Z,1.84
2023-02-02T05:17:30.133Z,1.81
2023-02-02T05:19:56.771Z,1.83
2023-02-02T05:22:23.226Z,1.77
2023-02-02T05:24:49.737Z,1.86
2023-02-02T05:27:16.158Z,1.88
2023-02-02T05:29:42.661Z,1.86
2023-02-02T05:32:09.211Z,1.88
2023-02-02T05:34:35.696Z,1.85
2023-02-02T05:37:02.124Z,1.83
2023-02-02T05:39:28.578Z,1.80
2023-02-02T05:41:54.994Z,1.79
2023-02-02T05:44:21.440Z,1.80
2023-02-02T05:46:47.862Z,1.79
2023-02-02T05:49:14.563Z,1.85
2023-02-02T05:51:43.828Z,1.82
2023-02-02T05:54:10.281Z,1.83
2023-02-02T05:56:36.740Z,1.82
2023-02-02T05:59:07.399Z,1.88
2023-02-02T06:01:34.365Z,1.90
2023-02-02T06:04:00.910Z,1.86
2023-02-02T06:06:27.691Z,1.85
2023-02-02T06:08:54.181Z,1.87
2023-02-02T06:11:20.619Z,1.84
2023-02-02T06:13:47.120Z,1.80
2023-02-02T06:16:13.615Z,1.82
2023-02-02T06:18:40.516Z,1.85
2023-02-02T06:21:07.085Z,1.84
2023-02-02T06:23:34.018Z,1.82
2023-02-02T06:26:00.710Z,1.83
2023-02-02T06:28:27.192Z,1.77
2023-02-02T06:30:53.689Z,1.73
2023-02-02T06:33:20.154Z,1.77
2023-02-02T06:35:46.610Z,1.75
2023-02-02T06:38:13.129Z,1.74
2023-02-02T06:40:39.546Z,1.76
2023-02-02T06:43:06.135Z,1.80
2023-02-02T06:45:32.610Z,1.86
2023-02-02T06:48:03.487Z,1.87
2023-02-02T06:50:30.122Z,1.83
2023-02-02T06:52:56.565Z,1.78
2023-02-02T06:55:23.319Z,1.83
2023-02-02T06:57:55.837Z,1.86
2023-02-02T07:00:22.330Z,1.87
2023-02-02T07:02:48.997Z,1.85
2023-02-02T07:05:15.470Z,1.82
2023-02-02T07:07:41.918Z,1.80
2023-02-02T07:10:08.715Z,1.83
2023-02-02T07:12:55.106Z,1.87
2023-02-02T07:15:22.450Z,1.91
2023-02-02T07:17:49.119Z,1.93
2023-02-02T07:20:15.761Z,1.97
2023-02-02T07:22:42.185Z,1.98
2023-02-02T07:25:08.705Z,1.93
2023-02-02T07:27:35.246Z,1.94
2023-02-02T07:30:02.289Z,1.96
2023-02-02T07:32:28.746Z,1.98
2023-02-02T07:34:55.177Z,1.97
2023-02-02T07:37:21.780Z,1.99
2023-02-02T07:39:48.261Z,1.98
2023-02-02T07:42:14.700Z,1.98
2023-02-02T07:44:41.154Z,1.98
2023-02-02T07:47:07.603Z,1.97
2023-02-02T07:49:34.072Z,1.94
2023-02-02T07:52:00.529Z,1.97
2023-02-02T07:54:26.966Z,2.05
2023-02-02T07:56:53.494Z,2.06
2023-02-02T07:59:19.926Z,2.06
2023-02-02T08:01:46.562Z,2.11
2023-02-02T08:04:13.094Z,2.05
2023-02-02T08:06:40.023Z,2.10
2023-02-02T08:09:10.138Z,2.12
2023-02-02T08:11:37.242Z,2.19
2023-02-02T08:14:04.521Z,2.24
2023-02-02T08:16:31.805Z,2.22
2023-02-02T08:18:58.863Z,2.24
2023-02-02T08:21:25.589Z,2.27
2023-02-02T08:23:53.009Z,2.30
2023-02-02T08:26:22.161Z,2.33
2023-02-02T08:28:49.766Z,2.27
2023-02-02T08:31:18.064Z,2.27
2023-02-02T08:33:44.927Z,2.30
2023-02-02T08:36:15.382Z,2.24
2023-02-02T08:38:41.884Z,2.30
2023-02-02T08:41:09.381Z,2.29
2023-02-02T08:43:35.924Z,2.28
2023-02-02T08:46:05.532Z,2.35
2023-02-02T08:48:32.261Z,2.41
2023-02-02T08:50:59.165Z,2.42
2023-02-02T08:53:26.006Z,2.37
2023-02-02T08:55:59.967Z,2.44
2023-02-02T08:58:26.741Z,2.40
2023-02-02T09:00:53.416Z,2.38
2023-02-02T09:03:19.855Z,2.38
2023-02-02T09:05:46.485Z,2.36
2023-02-02T09:08:12.949Z,2.37
2023-02-02T09:10:39.456Z,2.35
2023-02-02T09:13:05.893Z,2.39
2023-02-02T09:15:32.925Z,2.43
2023-02-02T09:17:59.364Z,2.38
2023-02-02T09:20:25.806Z,2.41
2023-02-02T09:22:54.858Z,2.41
2023-02-02T09:25:21.485Z,2.44
2023-02-02T09:27:47.922Z,2.40
2023-02-02T09:30:14.570Z,2.42
2023-02-02T09:32:41.024Z,2.44
2023-02-02T09:35:07.675Z,2.47
2023-02-02T09:37:35.014Z,2.45
2023-02-02T09:40:01.564Z,2.49
2023-02-02T09:42:30.887Z,2.52
2023-02-02T09:45:08.196Z,2.51
2023-02-02T09:47:34.616Z,2.57
2023-02-02T09:50:01.042Z,2.61
2023-02-02T09:52:47.892Z,2.63
2023-02-02T09:55:26.703Z,2.64
2023-02-02T09:57:56.436Z,2.66
2023-02-02T10:00:33.994Z,2.69
2023-02-02T10:03:26.659Z,2.70
2023-02-02T10:06:01.413Z,2.70
2023-02-02T10:08:34.952Z,2.73
2023-02-02T10:11:14.091Z,2.73
2023-02-02T10:13:43.665Z,2.71
2023-02-02T10:16:17.369Z,2.74
2023-02-02T10:18:55.842Z,2.78
2023-02-02T10:21:41.241Z,2.80
2023-02-02T10:24:18.724Z,2.76
2023-02-02T10:26:56.223Z,2.77
2023-02-02T10:29:22.707Z,2.79
2023-02-02T10:31:58.614Z,2.74
2023-02-02T10:34:40.203Z,2.72
2023-02-02T10:37:06.717Z,2.78
2023-02-02T10:39:56.238Z,2.78
2023-02-02T10:42:40.500Z,2.79
2023-02-02T10:45:15.927Z,2.79
2023-02-02T10:47:42.492Z,2.76
2023-02-02T10:50:19.541Z,2.76
2023-02-02T10:52:56.377Z,2.77
2023-02-02T10:55:33.085Z,2.78
2023-02-02T10:58:02.507Z,2.76
2023-02-02T11:00:43.613Z,2.74
2023-02-02T11:03:11.403Z,2.79
2023-02-02T11:05:56.566Z,2.81
2023-02-02T11:08:22.960Z,2.75
2023-02-02T11:10:52.052Z,2.73
2023-02-02T11:13:38.707Z,2.74
2023-02-02T11:16:14.442Z,2.71
2023-02-02T11:18:43.938Z,2.70
2023-02-02T11:21:27.361Z,2.76
2023-02-02T11:23:53.783Z,2.79
2023-02-02T11:26:20.398Z,2.86
2023-02-02T11:28:49.137Z,2.89
2023-02-02T11:31:51.202Z,2.88
2023-02-02T11:34:20.685Z,2.88
2023-02-02T11:37:13.435Z,2.90
2023-02-02T11:39:43.911Z,2.80
2023-02-02T11:42:16.203Z,2.79
2023-02-02T11:44:50.124Z,2.83
2023-02-02T11:47:21.751Z,2.82
2023-02-02T11:49:49.724Z,2.79
2023-02-02T11:52:18.557Z,2.81
2023-02-02T11:54:50.085Z,2.74
2023-02-02T11:57:18.943Z,2.70
2023-02-02T11:59:45.658Z,2.67
2023-02-02T12:02:32.079Z,2.69
2023-02-02T12:05:10.466Z,2.68
2023-02-02T12:07:37.587Z,2.64
2023-02-02T12:10:13.582Z,2.67
2023-02-02T12:12:40.131Z,2.69
2023-02-02T12:15:25.218Z,2.72
2023-02-02T12:17:55.965Z,2.65
2023-02-02T12:20:34.853Z,2.70
2023-02-02T12:23:19.999Z,2.67
2023-02-02T12:26:05.340Z,2.68
2023-02-02T12:28:39.536Z,2.70
2023-02-02T12:31:29.039Z,2.70
2023-02-02T12:34:09.992Z,2.70
2023-02-02T12:36:43.817Z,2.66
2023-02-02T12:39:25.572Z,2.58
2023-02-02T12:42:10.775Z,2.53
2023-02-02T12:44:37.195Z,2.54
2023-02-02T12:47:12.133Z,2.52
2023-02-02T12:49:57.602Z,2.42
2023-02-02T12:52:33.195Z,2.47
2023-02-02T12:55:03.415Z,2.55
2023-02-02T12:57:50.402Z,2.59
2023-02-02T13:00:26.414Z,2.61
2023-02-02T13:03:13.257Z,2.59
2023-02-02T13:08:37.937Z,2.59
2023-02-02T13:11:08.332Z,2.61
2023-02-02T13:13:37.923Z,2.56
2023-02-02T13:16:11.633Z,2.54
2023-02-02T13:18:42.569Z,2.47
2023-02-02T13:21:12.470Z,2.53
2023-02-02T13:23:52.834Z,2.45
2023-02-02T13:26:21.237Z,2.34
2023-02-02T13:28:47.800Z,2.30
2023-02-02T13:31:18.623Z,2.29
2023-02-02T13:33:48.435Z,2.28
2023-02-02T13:36:19.441Z,2.24
2023-02-02T13:38:46.046Z,2.15
2023-02-02T13:41:13.587Z,2.17
2023-02-02T13:43:46.151Z,2.17
2023-02-02T13:46:12.668Z,2.23
2023-02-02T13:48:48.087Z,2.23
2023-02-02T13:51:20.268Z,2.22
2023-02-02T13:54:05.643Z,2.22
2023-02-02T13:56:51.033Z,2.23
2023-02-02T13:59:40.228Z,2.22
2023-02-02T14:02:20.710Z,2.18
2023-02-02T14:04:53.126Z,2.25
2023-02-02T14:07:26.191Z,2.27
2023-02-02T14:09:52.704Z,2.21
2023-02-02T14:12:27.668Z,2.21
2023-02-02T14:14:54.376Z,2.24
2023-02-02T14:17:23.597Z,2.18
2023-02-02T14:19:51.674Z,2.22
2023-02-02T14:22:19.810Z,2.26
2023-02-02T14:24:54.071Z,2.24
2023-02-02T14:27:43.591Z,2.20
2023-02-02T14:30:21.355Z,2.22
2023-02-02T14:32:47.863Z,2.21
2023-02-02T14:35:14.986Z,2.22
2023-02-02T14:37:41.422Z,2.19
2023-02-02T14:40:10.541Z,2.21
2023-02-02T14:43:08.053Z,2.28
2023-02-02T14:45:39.398Z,2.30
2023-02-02T14:48:05.963Z,2.29
2023-02-02T14:50:38.577Z,2.31
2023-02-02T14:53:05.000Z,2.22
2023-02-02T14:55:31.522Z,2.22
2023-02-02T14:58:04.837Z,2.19
2023-02-02T15:00:32.902Z,2.16
2023-02-02T15:03:18.439Z,2.20
2023-02-02T15:05:46.194Z,2.28
2023-02-02T15:08:24.202Z,2.26
2023-02-02T15:10:53.691Z,2.31
2023-02-02T15:13:29.309Z,2.36
2023-02-02T15:16:04.846Z,2.39
2023-02-02T15:18:38.497Z,2.36
2023-02-02T15:21:06.673Z,2.38
2023-02-02T15:23:33.126Z,2.37
2023-02-02T15:26:01.207Z,2.38
2023-02-02T15:28:43.466Z,2.46
2023-02-02T15:31:25.331Z,2.38
2023-02-02T15:33:54.679Z,2.42
2023-02-02T15:36:26.686Z,2.38
2023-02-02T15:38:56.459Z,2.37
2023-02-02T15:41:33.535Z,2.36
2023-02-02T15:44:00.568Z,2.34
2023-02-02T15:46:35.741Z,2.36
2023-02-02T15:49:33.647Z,2.37
2023-02-02T15:52:03.287Z,2.33
2023-02-02T15:54:35.236Z,2.31
2023-02-02T15:57:09.047Z,2.29
2023-02-02T15:59:40.096Z,2.31
2023-02-02T16:02:06.552Z,2.30
2023-02-02T16:04:37.425Z,2.30
2023-02-02T16:07:05.555Z,2.36
2023-02-02T16:09:35.797Z,2.38
2023-02-02T16:12:04.203Z,2.33
2023-02-02T16:14:32.327Z,2.37
2023-02-02T16:17:10.177Z,2.38
2023-02-02T16:19:36.954Z,2.35
2023-02-02T16:22:06.074Z,2.39
2023-02-02T16:24:37.187Z,2.40
2023-02-02T16:27:05.935Z,2.32
2023-02-02T16:29:32.946Z,2.38
2023-02-02T16:31:59.661Z,2.40
2023-02-02T16:34:41.551Z,2.28
2023-02-02T16:37:13.210Z,2.32
2023-02-02T16:39:39.686Z,2.36
2023-02-02T16:42:23.143Z,2.37
2023-02-02T16:44:49.889Z,2.29
2023-02-02T16:47:25.266Z,2.31
2023-02-02T16:50:07.668Z,2.26
2023-02-02T16:53:12.781Z,2.27
2023-02-02T16:55:50.664Z,2.28
2023-02-02T16:58:19.908Z,2.24
2023-02-02T17:01:13.520Z,2.24
2023-02-02T17:03:45.879Z,2.17
2023-02-02T17:06:12.392Z,2.17
2023-02-02T17:08:39.574Z,2.23
2023-02-02T17:11:18.285Z,2.28
2023-02-02T17:13:44.736Z,2.33
2023-02-02T17:16:13.811Z,2.34
2023-02-02T17:18:40.455Z,2.32
2023-02-02T17:21:07.762Z,2.32
2023-02-02T17:23:39.567Z,2.28
2023-02-02T17:26:07.552Z,2.23
2023-02-02T17:28:34.200Z,2.22
2023-02-02T17:31:02.172Z,2.22
2023-02-02T17:33:29.187Z,2.24
2023-02-02T17:35:56.609Z,2.18
2023-02-02T17:38:24.044Z,2.18
2023-02-02T17:40:51.083Z,2.05
2023-02-02T17:43:17.525Z,2.09
2023-02-02T17:45:44.079Z,2.03
2023-02-02T17:48:12.182Z,1.94
2023-02-02T17:50:38.925Z,1.98
2023-02-02T17:53:05.578Z,2.03
2023-02-02T17:55:33.370Z,1.97
2023-02-02T17:58:00.068Z,1.94
2023-02-02T18:00:28.648Z,1.92
2023-02-02T18:03:01.380Z,1.94
2023-02-02T18:05:28.114Z,1.86
2023-02-02T18:07:55.033Z,1.87
2023-02-02T18:10:26.296Z,1.85
2023-02-02T18:12:52.987Z,1.80
2023-02-02T18:15:19.435Z,1.77
2023-02-02T18:17:45.848Z,1.82
2023-02-02T18:20:14.098Z,1.83
2023-02-02T18:22:40.881Z,1.87
2023-02-02T18:25:07.588Z,1.81
2023-02-02T18:27:34.015Z,1.81
2023-02-02T18:30:00.585Z,1.82
2023-02-02T18:32:27.038Z,1.80
2023-02-02T18:34:55.881Z,1.83
2023-02-02T18:37:23.148Z,1.78
2023-02-02T18:39:49.632Z,1.75
2023-02-02T18:42:16.117Z,1.82
2023-02-02T18:44:42.767Z,1.84
2023-02-02T18:47:09.254Z,1.91
2023-02-02T18:49:35.704Z,1.86
2023-02-02T18:52:02.803Z,1.86
2023-02-02T18:54:29.522Z,1.82
2023-02-02T18:56:56.009Z,1.77
2023-02-02T18:59:22.566Z,1.77
2023-02-02T19:01:49.033Z,1.77
2023-02-02T19:04:15.560Z,1.78
2023-02-02T19:07:00.995Z,1.76
2023-02-02T19:09:27.433Z,1.75
2023-02-02T19:11:54.908Z,1.67
2023-02-02T19:14:24.655Z,1.62
2023-02-02T19:16:52.617Z,1.62
2023-02-02T19:19:19.040Z,1.58
2023-02-02T19:21:46.172Z,1.59
2023-02-02T19:24:13.130Z,1.52
2023-02-02T19:26:45.959Z,1.61
2023-02-02T19:29:18.433Z,1.65
2023-02-02T19:31:45.031Z,1.62
2023-02-02T19:34:13.123Z,1.55
2023-02-02T19:36:45.498Z,1.54
2023-02-02T19:39:14.807Z,1.56
2023-02-02T19:41:42.933Z,1.61
2023-02-02T19:44:13.891Z,1.63
2023-02-02T19:46:42.674Z,1.67
2023-02-02T19:49:18.012Z,1.68
2023-02-02T19:51:45.855Z,1.66
2023-02-02T19:54:22.051Z,1.67
2023-02-02T19:56:49.780Z,1.70
2023-02-02T19:59:18.371Z,1.67
2023-02-02T20:01:47.781Z,1.62
2023-02-02T20:04:19.389Z,1.47
2023-02-02T20:06:58.714Z,1.48
2023-02-02T20:09:29.848Z,1.55
2023-02-02T20:11:56.725Z,1.53
2023-02-02T20:14:28.532Z,1.49
2023-02-02T20:17:04.966Z,1.47
2023-02-02T20:19:37.201Z,1.44
2023-02-02T20:22:03.866Z,1.40
2023-02-02T20:24:37.578Z,1.47
2023-02-02T20:27:16.707Z,1.47
2023-02-02T20:29:45.183Z,1.42
2023-02-02T20:32:18.214Z,1.32
2023-02-02T20:34:45.103Z,1.34
2023-02-02T20:37:17.645Z,1.22
2023-02-02T20:39:49.919Z,1.05
2023-02-02T20:42:16.357Z,1.10
2023-02-02T20:44:43.250Z,1.18
2023-02-02T20:47:09.966Z,1.23
2023-02-02T20:49:37.046Z,1.30
2023-02-02T20:52:07.889Z,1.32
2023-02-02T20:54:34.490Z,1.29
2023-02-02T20:57:02.148Z,1.23
2023-02-02T20:59:28.632Z,1.20
2023-02-02T21:01:55.065Z,1.26
2023-02-02T21:04:22.018Z,1.29
2023-02-02T21:06:49.262Z,1.30
2023-02-02T21:09:16.149Z,1.29
2023-02-02T21:11:42.820Z,1.29
2023-02-02T21:14:09.342Z,1.32
2023-02-02T21:16:36.726Z,1.29
2023-02-02T21:19:03.295Z,1.29
2023-02-02T21:21:30.007Z,1.28
2023-02-02T21:23:56.665Z,1.24
2023-02-02T21:26:27.254Z,1.15
2023-02-02T21:28:53.994Z,1.14
2023-02-02T21:31:20.504Z,1.15
2023-02-02T21:33:47.841Z,1.14
2023-02-02T21:36:14.502Z,1.13
2023-02-02T21:38:40.955Z,1.09
2023-02-02T21:41:13.762Z,1.12
2023-02-02T21:43:40.290Z,1.11
2023-02-02T21:46:20.049Z,1.07
2023-02-02T21:48:47.951Z,0.88
2023-02-02T21:51:31.865Z,0.84
2023-02-02T21:53:58.289Z,0.80
2023-02-02T21:56:32.254Z,0.82
2023-02-02T21:59:00.297Z,0.72
2023-02-02T22:01:34.755Z,0.80
2023-02-02T22:04:01.437Z,0.79
2023-02-02T22:06:35.125Z,0.73
2023-02-02T22:09:14.348Z,0.79
2023-02-02T22:11:40.776Z,0.80
2023-02-02T22:14:13.116Z,0.85
2023-02-02T22:16:43.227Z,0.83
2023-02-02T22:19:29.906Z,0.74
2023-02-02T22:22:07.020Z,0.48
2023-02-02T22:24:33.562Z,0.54
2023-02-02T22:27:00.228Z,0.66
2023-02-02T22:29:29.175Z,0.75
2023-02-02T22:31:55.637Z,0.85
2023-02-02T22:34:22.184Z,0.92
2023-02-02T22:36:48.693Z,0.93
2023-02-02T22:39:15.125Z,0.82
2023-02-02T22:41:41.609Z,0.75
2023-02-02T22:44:08.123Z,0.80
2023-02-02T22:46:34.622Z,0.75
2023-02-02T22:49:01.136Z,0.69
2023-02-02T22:51:27.632Z,0.72
2023-02-02T22:53:54.084Z,0.76
2023-02-02T22:56:21.576Z,0.73
2023-02-02T22:58:48.014Z,0.67
2023-02-02T23:01:15.464Z,0.72
2023-02-02T23:03:41.979Z,0.67
2023-02-02T23:06:08.641Z,0.72
2023-02-02T23:08:35.171Z,0.81
2023-02-02T23:11:01.693Z,0.81
2023-02-02T23:13:28.144Z,0.74
2023-02-02T23:15:56.710Z,0.79
2023-02-02T23:18:23.283Z,0.76
2023-02-02T23:20:50.519Z,0.74
2023-02-02T23:23:17.135Z,0.77
2023-02-02T23:25:43.575Z,0.69
2023-02-02T23:28:10.636Z,0.61
2023-02-02T23:30:37.963Z,0.57
2023-02-02T23:33:04.411Z,0.63
2023-02-02T23:35:30.893Z,0.67
2023-02-02T23:37:57.353Z,0.57
2023-02-02T23:40:23.857Z,0.50
2023-02-02T23:42:50.520Z,0.46
2023-02-02T23:45:16.959Z,0.52
2023-02-02T23:47:43.664Z,0.58
2023-02-02T23:50:11.168Z,0.66
2023-02-02T23:52:37.960Z,0.68
2023-02-02T23:55:05.015Z,0.61
2023-02-02T23:57:33.923Z,0.61
